createdAt,value
2023-01-17T00:01:30.261Z,3.57
2023-01-17T00:04:15.164Z,3.60
2023-01-17T00:07:00.310Z,3.55
2023-01-17T00:09:45.168Z,3.56
2023-01-17T00:12:11.667Z,3.54
2023-01-17T00:14:38.145Z,3.48
2023-01-17T00:17:04.676Z,3.45
2023-01-17T00:19:49.805Z,3.49
2023-01-17T00:22:51.939Z,3.50
2023-01-17T00:25:39.900Z,3.53
2023-01-17T00:28:06.523Z,3.53
2023-01-17T00:30:33.679Z,3.50
2023-01-17T00:33:00.866Z,3.49
2023-01-17T00:35:29.578Z,3.48
2023-01-17T00:38:11.052Z,3.53
2023-01-17T00:40:39.377Z,3.52
2023-01-17T00:43:25.871Z,3.41
2023-01-17T00:46:11.218Z,3.28
2023-01-17T00:48:57.427Z,3.10
2023-01-17T00:51:43.298Z,3.04
2023-01-17T00:54:28.666Z,2.88
2023-01-17T00:57:14.438Z,2.66
2023-01-17T00:59:59.279Z,2.51
2023-01-17T01:02:45.273Z,2.41
2023-01-17T01:05:31.252Z,2.39
2023-01-17T01:08:16.562Z,2.25
2023-01-17T01:11:03.097Z,2.15
2023-01-17T01:13:49.345Z,2.16
2023-01-17T01:16:35.283Z,2.22
2023-01-17T01:19:21.241Z,2.23
2023-01-17T01:22:05.957Z,2.23
2023-01-17T01:24:51.485Z,2.30
2023-01-17T01:27:36.758Z,2.34
2023-01-17T01:30:23.280Z,2.39
2023-01-17T01:33:08.065Z,2.44
2023-01-17T01:35:36.516Z,2.40
2023-01-17T01:38:03.609Z,2.39
2023-01-17T01:40:30.141Z,2.35
2023-01-17T01:42:59.548Z,2.27
2023-01-17T01:45:29.023Z,2.21
2023-01-17T01:48:01.834Z,2.16
2023-01-17T01:50:30.533Z,2.11
2023-01-17T01:53:00.799Z,2.02
2023-01-17T01:55:33.264Z,1.93
2023-01-17T01:58:04.300Z,1.82
2023-01-17T02:00:35.224Z,1.78
2023-01-17T02:03:07.921Z,1.77
2023-01-17T02:05:35.415Z,1.73
2023-01-17T02:08:07.699Z,1.72
2023-01-17T02:10:35.651Z,1.70
2023-01-17T02:13:02.805Z,1.65
2023-01-17T02:15:36.126Z,1.62
2023-01-17T02:18:17.712Z,1.61
2023-01-17T02:21:05.480Z,1.64
2023-01-17T02:23:58.106Z,1.64
2023-01-17T02:26:41.130Z,1.56
2023-01-17T02:29:26.482Z,1.55
2023-01-17T02:32:31.372Z,1.59
2023-01-17T02:35:25.608Z,1.56
2023-01-17T02:38:31.186Z,1.64
2023-01-17T02:41:07.628Z,1.76
2023-01-17T02:43:35.962Z,1.80
2023-01-17T02:46:03.480Z,1.81
2023-01-17T02:48:33.236Z,1.76
2023-01-17T02:51:27.549Z,1.73
2023-01-17T02:54:20.585Z,1.74
2023-01-17T02:57:23.662Z,1.73
2023-01-17T03:00:37.877Z,1.68
2023-01-17T03:03:10.302Z,1.69
2023-01-17T03:05:43.485Z,1.74
2023-01-17T03:08:11.087Z,1.82
2023-01-17T03:10:39.055Z,1.87
2023-01-17T03:13:05.654Z,1.87
2023-01-17T03:15:32.177Z,1.76
2023-01-17T03:18:02.724Z,1.73
2023-01-17T03:20:29.241Z,1.69
2023-01-17T03:22:55.772Z,1.60
2023-01-17T03:25:22.363Z,1.55
2023-01-17T03:27:48.943Z,1.50
2023-01-17T03:30:16.075Z,1.43
2023-01-17T03:32:42.580Z,1.34
2023-01-17T03:35:09.287Z,1.30
2023-01-17T03:37:35.766Z,1.24
2023-01-17T03:40:02.238Z,1.27
2023-01-17T03:42:28.699Z,1.38
2023-01-17T03:44:55.148Z,1.39
2023-01-17T03:47:21.625Z,1.39
2023-01-17T03:49:48.100Z,1.37
2023-01-17T03:52:14.623Z,1.34
2023-01-17T03:54:41.063Z,1.26
2023-01-17T03:57:08.539Z,1.22
2023-01-17T03:59:35.002Z,1.15
2023-01-17T04:02:01.706Z,1.09
2023-01-17T04:04:28.190Z,1.08
2023-01-17T04:06:54.729Z,1.07
2023-01-17T04:09:21.341Z,1.07
2023-01-17T04:11:50.855Z,1.04
2023-01-17T04:14:17.702Z,1.08
2023-01-17T04:16:44.387Z,1.09
2023-01-17T04:19:13.559Z,1.11
2023-01-17T04:21:40.022Z,1.09
2023-01-17T04:24:06.846Z,1.08
2023-01-17T04:26:33.299Z,1.10
2023-01-17T04:28:59.804Z,1.14
2023-01-17T04:31:26.271Z,1.19
2023-01-17T04:33:52.868Z,1.18
2023-01-17T04:36:19.382Z,1.17
2023-01-17T04:38:45.982Z,1.18
2023-01-17T04:41:12.459Z,1.18
2023-01-17T04:43:38.996Z,1.17
2023-01-17T04:46:09.993Z,1.21
2023-01-17T04:48:37.190Z,1.17
2023-01-17T04:51:05.525Z,1.21
2023-01-17T04:53:32.362Z,1.20
2023-01-17T04:55:58.954Z,1.15
2023-01-17T04:58:25.400Z,1.08
2023-01-17T05:00:51.987Z,1.00
2023-01-17T05:03:20.383Z,0.96
2023-01-17T05:05:47.397Z,0.98
2023-01-17T05:08:14.579Z,0.99
2023-01-17T05:10:41.140Z,1.00
2023-01-17T05:13:07.579Z,1.10
2023-01-17T05:15:34.221Z,1.14
2023-01-17T05:18:00.701Z,1.14
2023-01-17T05:20:27.619Z,1.13
2023-01-17T05:22:58.348Z,1.14
2023-01-17T05:25:26.595Z,1.12
2023-01-17T05:27:53.599Z,1.15
2023-01-17T05:30:20.592Z,1.19
2023-01-17T05:32:51.795Z,1.19
2023-01-17T05:35:20.246Z,1.18
2023-01-17T05:37:49.190Z,1.21
2023-01-17T05:40:27.997Z,1.17
2023-01-17T05:42:56.667Z,1.13
2023-01-17T05:45:26.331Z,1.10
2023-01-17T05:47:54.943Z,1.13
2023-01-17T05:50:27.807Z,1.17
2023-01-17T05:52:56.756Z,1.20
2023-01-17T05:55:23.977Z,1.15
2023-01-17T05:57:50.476Z,1.11
2023-01-17T06:00:18.061Z,1.07
2023-01-17T06:02:45.424Z,0.97
2023-01-17T06:05:12.346Z,0.97
2023-01-17T06:07:39.418Z,1.03
2023-01-17T06:10:06.561Z,1.11
2023-01-17T06:12:33.045Z,1.18
2023-01-17T06:14:59.499Z,1.22
2023-01-17T06:17:25.934Z,1.26
2023-01-17T06:19:52.441Z,1.25
2023-01-17T06:22:18.958Z,1.33
2023-01-17T06:24:45.414Z,1.41
2023-01-17T06:27:11.894Z,1.42
2023-01-17T06:29:38.336Z,1.42
2023-01-17T06:32:05.084Z,1.45
2023-01-17T06:34:31.582Z,1.42
2023-01-17T06:36:58.060Z,1.41
2023-01-17T06:39:24.585Z,1.41
2023-01-17T06:41:51.077Z,1.42
2023-01-17T06:44:17.575Z,1.38
2023-01-17T06:46:45.069Z,1.41
2023-01-17T06:49:11.633Z,1.44
2023-01-17T06:51:38.111Z,1.47
2023-01-17T06:54:04.823Z,1.47
2023-01-17T06:56:32.938Z,1.40
2023-01-17T06:58:59.391Z,1.41
2023-01-17T07:01:26.144Z,1.41
2023-01-17T07:03:52.855Z,1.41
2023-01-17T07:06:19.649Z,1.42
2023-01-17T07:08:47.467Z,1.37
2023-01-17T07:11:13.961Z,1.40
2023-01-17T07:13:40.807Z,1.35
2023-01-17T07:16:08.790Z,1.44
2023-01-17T07:18:35.439Z,1.37
2023-01-17T07:21:01.885Z,1.27
2023-01-17T07:23:28.365Z,1.25
2023-01-17T07:25:59.299Z,1.26
2023-01-17T07:28:28.215Z,1.29
2023-01-17T07:30:54.949Z,1.27
2023-01-17T07:33:21.827Z,1.31
2023-01-17T07:35:48.256Z,1.32
2023-01-17T07:38:17.545Z,1.32
2023-01-17T07:40:44.964Z,1.34
2023-01-17T07:43:14.825Z,1.25
2023-01-17T07:45:45.756Z,1.25
2023-01-17T07:48:13.069Z,1.25
2023-01-17T07:50:39.706Z,1.18
2023-01-17T07:53:06.252Z,1.17
2023-01-17T07:55:33.268Z,1.16
2023-01-17T07:58:02.281Z,1.15
2023-01-17T08:00:29.521Z,1.11
2023-01-17T08:02:57.931Z,1.17
2023-01-17T08:05:24.860Z,1.31
2023-01-17T08:07:51.640Z,1.49
2023-01-17T08:10:18.230Z,1.52
2023-01-17T08:12:48.848Z,1.47
2023-01-17T08:15:18.866Z,1.49
2023-01-17T08:17:47.109Z,1.54
2023-01-17T08:20:14.115Z,1.58
2023-01-17T08:22:40.678Z,1.57
2023-01-17T08:25:07.817Z,1.57
2023-01-17T08:27:36.171Z,1.56
2023-01-17T08:30:02.920Z,1.59
2023-01-17T08:32:29.404Z,1.61
2023-01-17T08:34:57.140Z,1.68
2023-01-17T08:37:23.867Z,1.67
2023-01-17T08:39:50.473Z,1.68
2023-01-17T08:42:17.307Z,1.66
2023-01-17T08:44:44.088Z,1.64
2023-01-17T08:47:10.784Z,1.57
2023-01-17T08:49:37.272Z,1.52
2023-01-17T08:52:05.194Z,1.49
2023-01-17T08:54:31.848Z,1.42
2023-01-17T08:56:58.400Z,1.32
2023-01-17T08:59:24.915Z,1.26
2023-01-17T09:01:52.549Z,1.25
2023-01-17T09:04:19.289Z,1.28
2023-01-17T09:06:48.119Z,1.31
2023-01-17T09:09:16.740Z,1.33
2023-01-17T09:11:43.315Z,1.46
2023-01-17T09:14:12.425Z,1.76
2023-01-17T09:16:38.976Z,2.01
2023-01-17T09:19:05.487Z,1.93
2023-01-17T09:21:32.041Z,1.86
2023-01-17T09:23:58.523Z,1.92
2023-01-17T09:26:28.236Z,2.03
2023-01-17T09:28:55.186Z,2.07
2023-01-17T09:31:23.608Z,2.08
2023-01-17T09:33:51.879Z,2.12
2023-01-17T09:36:18.394Z,2.21
2023-01-17T09:38:45.070Z,2.30
2023-01-17T09:41:17.687Z,2.32
2023-01-17T09:43:53.709Z,2.30
2023-01-17T09:46:25.607Z,2.26
2023-01-17T09:49:01.920Z,2.20
2023-01-17T09:51:28.459Z,2.13
2023-01-17T09:53:55.374Z,2.10
2023-01-17T09:56:31.592Z,2.17
2023-01-17T09:59:20.875Z,2.22
2023-01-17T10:01:55.823Z,2.22
2023-01-17T10:04:45.341Z,2.17
2023-01-17T10:07:32.442Z,2.12
2023-01-17T10:10:20.115Z,2.10
2023-01-17T10:13:12.806Z,2.14
2023-01-17T10:15:51.881Z,2.29
2023-01-17T10:18:42.940Z,2.32
2023-01-17T10:21:14.294Z,2.37
2023-01-17T10:24:03.776Z,2.43
2023-01-17T10:26:32.473Z,2.41
2023-01-17T10:29:03.351Z,2.45
2023-01-17T10:31:34.074Z,2.39
2023-01-17T10:34:24.783Z,2.39
2023-01-17T10:37:03.135Z,2.45
2023-01-17T10:39:30.852Z,2.50
2023-01-17T10:42:06.635Z,2.52
2023-01-17T10:44:43.883Z,2.50
2023-01-17T10:47:10.311Z,2.56
2023-01-17T10:49:46.886Z,2.61
2023-01-17T10:52:45.169Z,2.65
2023-01-17T10:55:21.519Z,2.69
2023-01-17T10:57:49.742Z,2.80
2023-01-17T11:00:19.453Z,2.86
2023-01-17T11:02:50.568Z,2.95
2023-01-17T11:05:29.196Z,2.97
2023-01-17T11:08:03.280Z,2.93
2023-01-17T11:10:40.007Z,2.91
2023-01-17T11:13:44.830Z,2.79
2023-01-17T11:16:21.176Z,2.81
2023-01-17T11:19:04.488Z,2.96
2023-01-17T11:21:32.133Z,3.15
2023-01-17T11:24:10.591Z,3.25
2023-01-17T11:26:45.581Z,3.20
2023-01-17T11:29:26.995Z,3.10
2023-01-17T11:31:56.242Z,3.13
2023-01-17T11:34:29.430Z,3.17
2023-01-17T11:37:19.398Z,3.17
2023-01-17T11:39:49.708Z,3.20
2023-01-17T11:42:34.249Z,3.23
2023-01-17T11:45:28.975Z,3.20
2023-01-17T11:48:12.562Z,3.14
2023-01-17T11:50:54.815Z,3.25
2023-01-17T11:53:34.848Z,3.43
2023-01-17T11:56:18.391Z,3.53
2023-01-17T11:58:45.927Z,3.64
2023-01-17T12:01:43.033Z,3.79
2023-01-17T12:04:09.490Z,3.87
2023-01-17T12:06:57.708Z,3.93
2023-01-17T12:09:43.444Z,4.08
2023-01-17T12:12:56.121Z,4.26
2023-01-17T12:15:44.861Z,4.37
2023-01-17T12:18:17.363Z,4.36
2023-01-17T12:20:53.014Z,4.34
2023-01-17T12:23:40.498Z,4.42
2023-01-17T12:26:19.778Z,4.46
2023-01-17T12:28:52.296Z,4.45
2023-01-17T12:31:49.884Z,4.38
2023-01-17T12:34:23.786Z,4.43
2023-01-17T12:37:00.352Z,4.49
2023-01-17T12:39:33.121Z,4.54
2023-01-17T12:42:05.789Z,4.57
2023-01-17T12:45:05.631Z,4.55
2023-01-17T12:47:37.820Z,4.57
2023-01-17T12:50:14.777Z,4.51
2023-01-17T12:53:06.001Z,4.49
2023-01-17T12:55:57.888Z,4.55
2023-01-17T12:58:34.884Z,4.56
2023-01-17T13:01:24.498Z,4.66
2023-01-17T13:04:19.917Z,4.68
2023-01-17T13:06:52.059Z,4.70
2023-01-17T13:09:22.520Z,4.75
2023-01-17T13:11:57.583Z,4.78
2023-01-17T13:14:24.326Z,4.79
2023-01-17T13:17:21.477Z,4.80
2023-01-17T13:20:01.062Z,4.89
2023-01-17T13:22:28.850Z,4.99
2023-01-17T13:25:23.231Z,5.02
2023-01-17T13:28:01.733Z,5.06
2023-01-17T13:30:34.554Z,5.03
2023-01-17T13:33:34.389Z,5.05
2023-01-17T13:36:29.980Z,4.99
2023-01-17T13:39:21.258Z,5.07
2023-01-17T13:41:54.948Z,5.15
2023-01-17T13:44:26.077Z,5.15
2023-01-17T13:46:58.364Z,5.28
2023-01-17T13:49:39.932Z,5.36
2023-01-17T13:52:10.883Z,5.59
2023-01-17T13:55:05.469Z,5.69
2023-01-17T13:57:42.143Z,6.00
2023-01-17T14:00:21.391Z,6.06
2023-01-17T14:02:49.985Z,5.97
2023-01-17T14:05:39.539Z,5.69
2023-01-17T14:08:17.231Z,5.51
2023-01-17T14:10:47.884Z,5.47
2023-01-17T14:13:35.662Z,5.51
2023-01-17T14:16:22.744Z,5.78
2023-01-17T14:18:49.984Z,6.01
2023-01-17T14:21:29.015Z,5.94
2023-01-17T14:24:10.534Z,5.85
2023-01-17T14:26:43.620Z,6.06
2023-01-17T14:29:47.840Z,6.46
2023-01-17T14:32:23.751Z,6.89
2023-01-17T14:34:52.880Z,7.06
2023-01-17T14:37:30.112Z,7.14
2023-01-17T14:39:56.670Z,6.95
2023-01-17T14:42:26.596Z,6.84
2023-01-17T14:45:00.415Z,6.95
2023-01-17T14:47:31.698Z,6.93
2023-01-17T14:50:11.966Z,7.02
2023-01-17T14:52:38.487Z,7.13
2023-01-17T14:55:15.538Z,7.54
2023-01-17T14:57:42.886Z,7.83
2023-01-17T15:00:13.681Z,8.00
2023-01-17T15:02:43.206Z,8.28
2023-01-17T15:05:14.184Z,8.90
2023-01-17T15:07:43.084Z,8.33
2023-01-17T15:10:15.793Z,7.52
2023-01-17T15:12:46.655Z,7.14
2023-01-17T15:15:35.436Z,6.87
2023-01-17T15:18:13.994Z,7.75
2023-01-17T15:20:49.651Z,8.37
2023-01-17T15:23:20.481Z,8.46
2023-01-17T15:25:49.380Z,8.60
2023-01-17T15:28:16.641Z,8.61
2023-01-17T15:31:01.798Z,8.76
2023-01-17T15:33:31.852Z,8.79
2023-01-17T15:36:04.559Z,8.20
2023-01-17T15:38:38.580Z,7.59
2023-01-17T15:41:13.656Z,6.99
2023-01-17T15:43:41.971Z,6.63
2023-01-17T15:46:24.257Z,6.07
2023-01-17T15:48:51.802Z,5.69
2023-01-17T15:51:33.417Z,5.32
2023-01-17T15:54:00.097Z,5.14
2023-01-17T15:56:33.181Z,5.17
2023-01-17T15:59:27.214Z,4.99
2023-01-17T16:01:58.142Z,4.89
2023-01-17T16:04:37.074Z,4.76
2023-01-17T16:07:27.557Z,4.60
2023-01-17T16:10:02.747Z,4.49
2023-01-17T16:12:29.234Z,4.40
2023-01-17T16:15:11.192Z,4.17
2023-01-17T16:17:42.569Z,3.99
2023-01-17T16:20:15.843Z,3.96
2023-01-17T16:22:43.903Z,3.91
2023-01-17T16:25:22.133Z,3.84
2023-01-17T16:27:49.719Z,3.80
2023-01-17T16:30:18.575Z,3.75
2023-01-17T16:32:48.364Z,3.70
2023-01-17T16:35:26.050Z,3.61
2023-01-17T16:37:56.723Z,3.54
2023-01-17T16:40:25.875Z,3.46
2023-01-17T16:42:52.346Z,3.41
2023-01-17T16:45:19.014Z,3.37
2023-01-17T16:47:47.434Z,3.32
2023-01-17T16:50:17.524Z,3.31
2023-01-17T16:52:44.203Z,3.24
2023-01-17T16:55:14.423Z,3.17
2023-01-17T16:57:40.970Z,3.15
2023-01-17T17:00:09.523Z,3.12
2023-01-17T17:02:36.151Z,2.99
2023-01-17T17:05:02.760Z,2.96
2023-01-17T17:07:29.287Z,2.87
2023-01-17T17:09:55.774Z,2.86
2023-01-17T17:12:22.418Z,2.80
2023-01-17T17:14:48.903Z,2.72
2023-01-17T17:17:15.581Z,2.70
2023-01-17T17:19:42.154Z,2.65
2023-01-17T17:22:08.600Z,2.65
2023-01-17T17:24:35.093Z,2.58
2023-01-17T17:27:01.550Z,2.54
2023-01-17T17:29:28.130Z,2.47
2023-01-17T17:31:54.739Z,2.43
2023-01-17T17:34:23.155Z,2.40
2023-01-17T17:36:51.610Z,2.31
2023-01-17T17:39:18.086Z,2.27
2023-01-17T17:41:45.850Z,2.32
2023-01-17T17:44:13.878Z,2.28
2023-01-17T17:46:42.091Z,2.21
2023-01-17T17:49:09.441Z,2.16
2023-01-17T17:51:40.068Z,2.09
2023-01-17T17:54:12.201Z,1.98
2023-01-17T17:56:39.084Z,2.03
2023-01-17T17:59:08.887Z,2.04
2023-01-17T18:01:38.278Z,2.00
2023-01-17T18:04:07.376Z,2.02
2023-01-17T18:06:35.104Z,2.09
2023-01-17T18:09:03.117Z,2.13
2023-01-17T18:11:30.466Z,2.01
2023-01-17T18:14:00.090Z,1.95
2023-01-17T18:16:35.525Z,1.99
2023-01-17T18:19:04.416Z,1.87
2023-01-17T18:21:33.669Z,1.89
2023-01-17T18:24:05.891Z,1.87
2023-01-17T18:26:34.690Z,1.85
2023-01-17T18:29:02.382Z,1.84
2023-01-17T18:31:30.125Z,1.88
2023-01-17T18:33:59.511Z,1.86
2023-01-17T18:36:28.657Z,1.85
2023-01-17T18:38:55.747Z,1.83
2023-01-17T18:41:27.617Z,1.76
2023-01-17T18:43:56.055Z,1.74
2023-01-17T18:46:23.776Z,1.72
2023-01-17T18:48:50.740Z,1.74
2023-01-17T18:51:19.249Z,1.76
2023-01-17T18:53:46.424Z,1.83
2023-01-17T18:56:15.751Z,1.92
2023-01-17T18:58:44.796Z,1.96
2023-01-17T19:01:14.370Z,1.98
2023-01-17T19:03:44.863Z,1.96
2023-01-17T19:06:17.068Z,1.90
2023-01-17T19:08:43.807Z,1.91
2023-01-17T19:11:11.486Z,1.86
2023-01-17T19:13:39.364Z,1.88
2023-01-17T19:16:08.288Z,1.93
2023-01-17T19:18:35.352Z,1.99
2023-01-17T19:21:10.609Z,1.98
2023-01-17T19:23:37.585Z,1.82
2023-01-17T19:26:06.498Z,1.79
2023-01-17T19:28:35.650Z,1.76
2023-01-17T19:31:07.745Z,1.78
2023-01-17T19:33:36.210Z,1.88
2023-01-17T19:36:05.702Z,1.81
2023-01-17T19:38:34.221Z,1.90
2023-01-17T19:41:12.457Z,1.91
2023-01-17T19:43:40.650Z,1.90
2023-01-17T19:46:08.236Z,1.88
2023-01-17T19:48:36.769Z,1.89
2023-01-17T19:51:08.943Z,1.94
2023-01-17T19:53:37.228Z,1.89
2023-01-17T19:56:11.421Z,1.89
2023-01-17T19:58:38.810Z,1.94
2023-01-17T20:01:07.734Z,1.98
2023-01-17T20:03:34.579Z,2.03
2023-01-17T20:06:01.230Z,2.01
2023-01-17T20:08:27.778Z,1.93
2023-01-17T20:10:54.336Z,1.95
2023-01-17T20:13:20.785Z,2.01
2023-01-17T20:15:47.226Z,2.05
2023-01-17T20:18:13.868Z,1.97
2023-01-17T20:20:56.311Z,1.93
2023-01-17T20:23:23.315Z,1.87
2023-01-17T20:25:59.140Z,1.78
2023-01-17T20:28:26.871Z,1.75
2023-01-17T20:30:54.678Z,1.69
2023-01-17T20:33:22.083Z,1.63
2023-01-17T20:35:58.143Z,1.56
2023-01-17T20:38:45.763Z,1.50
2023-01-17T20:41:33.794Z,1.37
2023-01-17T20:44:02.362Z,1.37
2023-01-17T20:46:35.504Z,1.41
2023-01-17T20:49:05.441Z,1.50
2023-01-17T20:51:34.482Z,1.50
2023-01-17T20:54:03.375Z,1.42
2023-01-17T20:56:34.518Z,1.44
2023-01-17T20:59:03.952Z,1.33
2023-01-17T21:01:30.707Z,1.32
2023-01-17T21:03:57.480Z,1.29
2023-01-17T21:06:24.546Z,1.28
2023-01-17T21:08:51.638Z,1.43
2023-01-17T21:11:21.370Z,1.56
2023-01-17T21:13:51.427Z,1.56
2023-01-17T21:16:20.356Z,1.49
2023-01-17T21:18:48.134Z,1.26
2023-01-17T21:21:23.407Z,1.11
2023-01-17T21:23:51.574Z,1.08
2023-01-17T21:26:19.348Z,1.02
2023-01-17T21:28:47.595Z,1.01
2023-01-17T21:31:26.315Z,0.92
2023-01-17T21:33:55.883Z,0.96
2023-01-17T21:36:25.541Z,0.95
2023-01-17T21:38:54.718Z,0.86
2023-01-17T21:41:24.446Z,0.82
2023-01-17T21:43:58.394Z,0.85
2023-01-17T21:46:25.256Z,0.83
2023-01-17T21:48:51.914Z,0.81
2023-01-17T21:51:19.677Z,0.73
2023-01-17T21:53:46.208Z,0.74
2023-01-17T21:56:32.597Z,0.69
2023-01-17T21:58:59.749Z,0.62
2023-01-17T22:01:32.991Z,0.67
2023-01-17T22:04:02.772Z,0.70
2023-01-17T22:06:31.965Z,0.73
2023-01-17T22:08:59.181Z,0.85
2023-01-17T22:11:27.358Z,0.74
2023-01-17T22:13:54.175Z,0.69
2023-01-17T22:16:26.001Z,0.74
2023-01-17T22:18:52.681Z,0.65
2023-01-17T22:21:22.199Z,0.62
2023-01-17T22:23:54.304Z,0.59
2023-01-17T22:26:23.166Z,0.61
2023-01-17T22:28:49.977Z,0.60
2023-01-17T22:31:17.611Z,0.52
2023-01-17T22:33:47.388Z,0.54
2023-01-17T22:36:14.920Z,0.50
2023-01-17T22:38:42.893Z,0.53
2023-01-17T22:41:13.106Z,0.50
2023-01-17T22:43:41.944Z,0.48
2023-01-17T22:46:10.604Z,0.39
2023-01-17T22:48:38.560Z,0.37
2023-01-17T22:51:07.371Z,0.46
2023-01-17T22:53:33.990Z,0.50
2023-01-17T22:56:03.054Z,0.45
2023-01-17T22:58:30.680Z,0.29
2023-01-17T23:01:10.995Z,0.30
2023-01-17T23:03:38.498Z,0.24
2023-01-17T23:06:12.400Z,0.25
2023-01-17T23:08:41.610Z,0.27
2023-01-17T23:11:43.212Z,0.20
2023-01-17T23:14:12.792Z,0.22
2023-01-17T23:17:03.902Z,0.12
2023-01-17T23:19:42.277Z,0.12
2023-01-17T23:22:21.284Z,0.17
2023-01-17T23:24:56.548Z,0.20
2023-01-17T23:27:55.573Z,0.10
2023-01-17T23:30:27.968Z,0.10
2023-01-17T23:32:57.649Z,0.14
2023-01-17T23:35:27.323Z,0.11
2023-01-17T23:38:12.858Z,0.15
2023-01-17T23:40:40.357Z,0.06
2023-01-17T23:43:25.195Z,0.06
2023-01-17T23:45:53.789Z,0.09
2023-01-17T23:48:23.606Z,0.04
2023-01-17T23:50:50.767Z,0.03
2023-01-17T23:53:23.804Z,0.09
2023-01-17T23:55:53.553Z,0.13
2023-01-17T23:58:23.205Z,0.12
